createdAt,value
2022-09-23T00:01:09.155Z,101619.69
2022-09-23T00:03:39.062Z,101617.00
2022-09-23T00:06:10.742Z,101610.63
2022-09-23T00:08:39.976Z,101617.84
2022-09-23T00:11:10.781Z,101617.84
2022-09-23T00:13:39.512Z,101613.44
2022-09-23T00:16:10.026Z,101613.44
2022-09-23T00:18:37.583Z,101620.69
2022-09-23T00:21:06.926Z,101620.69
2022-09-23T00:23:34.320Z,101612.59
2022-09-23T00:26:03.672Z,101618.00
2022-09-23T00:28:31.336Z,101612.59
2022-09-23T00:31:07.063Z,101610.88
2022-09-23T00:33:34.457Z,101618.00
2022-09-23T00:36:03.645Z,101615.31
2022-09-23T00:38:30.835Z,101616.25
2022-09-23T00:40:58.501Z,101605.47
2022-09-23T00:43:38.386Z,101613.56
2022-09-23T00:46:08.995Z,101617.13
2022-09-23T00:48:39.792Z,101612.72
2022-09-23T00:51:10.037Z,101604.63
2022-09-23T00:53:38.774Z,101606.47
2022-09-23T00:56:10.307Z,101609.16
2022-09-23T00:58:41.930Z,101607.31
2022-09-23T01:01:09.570Z,101598.38
2022-09-23T01:03:37.004Z,101603.78
2022-09-23T01:06:05.397Z,101602.06
2022-09-23T01:08:32.831Z,101597.66
2022-09-23T01:11:24.215Z,101598.53
2022-09-23T01:14:19.059Z,101602.06
2022-09-23T01:17:10.107Z,101593.25
2022-09-23T01:20:06.409Z,101592.28
2022-09-23T01:22:50.037Z,101587.84
2022-09-23T01:25:32.185Z,101588.84
2022-09-23T01:28:21.402Z,101588.69
2022-09-23T01:31:15.071Z,101596.94
2022-09-23T01:34:12.842Z,101588.84
2022-09-23T01:36:46.592Z,101591.53
2022-09-23T01:39:30.810Z,101601.34
2022-09-23T01:42:36.597Z,101591.69
2022-09-23T01:45:28.755Z,101593.38
2022-09-23T01:48:13.854Z,101591.53
2022-09-23T01:50:59.249Z,101588.84
2022-09-23T01:53:33.060Z,101592.53
2022-09-23T01:56:07.939Z,101590.69
2022-09-23T01:59:01.588Z,101597.06
2022-09-23T02:01:51.839Z,101594.38
2022-09-23T02:04:57.254Z,101594.38
2022-09-23T02:07:37.612Z,101599.78
2022-09-23T02:10:18.768Z,101597.94
2022-09-23T02:12:52.241Z,101597.94
2022-09-23T02:15:23.686Z,101594.47
2022-09-23T02:17:56.164Z,101584.66
2022-09-23T02:20:29.632Z,101594.47
2022-09-23T02:23:03.732Z,101586.38
2022-09-23T02:25:52.426Z,101584.66
2022-09-23T02:28:28.349Z,101584.66
2022-09-23T02:31:08.324Z,101581.97
2022-09-23T02:33:44.104Z,101581.97
2022-09-23T02:36:27.760Z,101578.41
2022-09-23T02:39:14.614Z,101580.28
2022-09-23T02:42:02.359Z,101576.72
2022-09-23T02:44:30.189Z,101570.34
2022-09-23T02:46:57.884Z,101575.72
2022-09-23T02:49:27.884Z,101575.72
2022-09-23T02:51:56.457Z,101576.72
2022-09-23T02:54:29.076Z,101572.28
2022-09-23T02:56:57.605Z,101575.00
2022-09-23T02:59:25.016Z,101578.69
2022-09-23T03:02:14.306Z,101579.53
2022-09-23T03:04:53.643Z,101579.53
2022-09-23T03:07:44.144Z,101576.84
2022-09-23T03:10:24.892Z,101567.03
2022-09-23T03:13:01.283Z,101569.75
2022-09-23T03:15:46.450Z,101566.19
2022-09-23T03:18:23.591Z,101566.19
2022-09-23T03:20:59.100Z,101567.03
2022-09-23T03:23:37.072Z,101568.03
2022-09-23T03:26:40.936Z,101569.03
2022-09-23T03:29:11.509Z,101566.19
2022-09-23T03:31:41.130Z,101559.94
2022-09-23T03:34:18.737Z,101560.94
2022-09-23T03:37:11.756Z,101557.38
2022-09-23T03:40:11.037Z,101565.44
2022-09-23T03:42:38.952Z,101557.38
2022-09-23T03:45:13.090Z,101562.75
2022-09-23T03:47:40.424Z,101569.03
2022-09-23T03:50:07.988Z,101562.75
2022-09-23T03:52:35.203Z,101559.22
2022-09-23T03:55:02.456Z,101566.44
2022-09-23T03:57:29.784Z,101567.28
2022-09-23T03:59:57.027Z,101563.75
2022-09-23T04:02:24.384Z,101565.59
2022-09-23T04:04:51.705Z,101564.75
2022-09-23T04:07:19.404Z,101563.75
2022-09-23T04:09:46.675Z,101555.81
2022-09-23T04:12:16.186Z,101553.09
2022-09-23T04:14:43.882Z,101560.19
2022-09-23T04:17:12.054Z,101554.81
2022-09-23T04:19:39.595Z,101555.81
2022-09-23T04:22:07.709Z,101554.09
2022-09-23T04:24:35.147Z,101551.41
2022-09-23T04:27:02.638Z,101551.41
2022-09-23T04:29:30.135Z,101547.97
2022-09-23T04:31:57.835Z,101552.38
2022-09-23T04:34:25.177Z,101548.81
2022-09-23T04:36:52.394Z,101547.97
2022-09-23T04:39:19.999Z,101547.13
2022-09-23T04:41:47.472Z,101543.56
2022-09-23T04:44:15.297Z,101540.03
2022-09-23T04:46:46.851Z,101548.97
2022-09-23T04:49:15.287Z,101553.50
2022-09-23T04:51:43.670Z,101549.97
2022-09-23T04:54:12.636Z,101557.16
2022-09-23T04:56:39.966Z,101549.06
2022-09-23T04:59:07.972Z,101552.66
2022-09-23T05:01:36.364Z,101547.38
2022-09-23T05:04:10.998Z,101546.53
2022-09-23T05:06:38.398Z,101542.84
2022-09-23T05:09:07.545Z,101553.63
2022-09-23T05:11:35.541Z,101541.13
2022-09-23T05:14:03.406Z,101557.31
2022-09-23T05:16:30.769Z,101557.31
2022-09-23T05:18:58.253Z,101556.47
2022-09-23T05:21:28.519Z,101555.59
2022-09-23T05:24:00.598Z,101556.47
2022-09-23T05:26:30.742Z,101557.47
2022-09-23T05:28:59.026Z,101561.00
2022-09-23T05:31:29.190Z,101567.25
2022-09-23T05:33:59.238Z,101562.00
2022-09-23T05:36:28.323Z,101562.00
2022-09-23T05:38:56.606Z,101565.53
2022-09-23T05:41:25.278Z,101567.38
2022-09-23T05:43:53.615Z,101565.66
2022-09-23T05:46:24.026Z,101562.97
2022-09-23T05:48:51.629Z,101565.66
2022-09-23T05:51:28.789Z,101557.56
2022-09-23T05:53:59.339Z,101562.09
2022-09-23T05:56:28.494Z,101562.09
2022-09-23T05:58:58.039Z,101564.81
2022-09-23T06:01:28.015Z,101561.25
2022-09-23T06:03:57.152Z,101563.09
2022-09-23T06:06:28.756Z,101572.03
2022-09-23T06:08:56.973Z,101568.34
2022-09-23T06:11:24.289Z,101566.66
2022-09-23T06:13:55.742Z,101569.34
2022-09-23T06:16:23.096Z,101569.19
2022-09-23T06:18:50.431Z,101573.03
2022-09-23T06:21:18.517Z,101562.97
2022-09-23T06:23:46.644Z,101564.81
2022-09-23T06:26:15.901Z,101562.97
2022-09-23T06:28:44.728Z,101559.41
2022-09-23T06:31:15.314Z,101560.25
2022-09-23T06:33:44.997Z,101563.94
2022-09-23T06:36:17.767Z,101546.59
2022-09-23T06:38:53.136Z,101554.97
2022-09-23T06:41:20.800Z,101556.75
2022-09-23T06:43:48.193Z,101549.81
2022-09-23T06:46:17.141Z,101549.81
2022-09-23T06:48:46.329Z,101547.97
2022-09-23T06:51:21.628Z,101557.91
2022-09-23T06:53:49.757Z,101558.75
2022-09-23T06:56:17.937Z,101551.53
2022-09-23T06:58:46.174Z,101548.81
2022-09-23T07:01:19.162Z,101545.13
2022-09-23T07:03:48.542Z,101546.97
2022-09-23T07:06:16.177Z,101555.81
2022-09-23T07:08:47.105Z,101558.63
2022-09-23T07:11:15.997Z,101558.50
2022-09-23T07:13:43.559Z,101557.38
2022-09-23T07:16:11.611Z,101559.22
2022-09-23T07:18:39.578Z,101561.06
2022-09-23T07:21:15.119Z,101564.75
2022-09-23T07:23:47.919Z,101562.91
2022-09-23T07:26:16.506Z,101571.84
2022-09-23T07:28:43.853Z,101574.38
2022-09-23T07:31:15.532Z,101570.84
2022-09-23T07:33:44.268Z,101575.28
2022-09-23T07:36:14.683Z,101576.13
2022-09-23T07:38:45.477Z,101584.22
2022-09-23T07:41:16.979Z,101578.81
2022-09-23T07:43:45.624Z,101582.22
2022-09-23T07:46:17.757Z,101583.06
2022-09-23T07:48:45.977Z,101582.97
2022-09-23T07:51:18.226Z,101576.56
2022-09-23T07:53:51.192Z,101582.81
2022-09-23T07:56:19.398Z,101587.09
2022-09-23T07:59:00.074Z,101585.38
2022-09-23T08:01:31.611Z,101589.91
2022-09-23T08:04:08.942Z,101584.53
2022-09-23T08:06:41.307Z,101585.38
2022-09-23T08:09:09.377Z,101586.25
2022-09-23T08:11:39.374Z,101587.09
2022-09-23T08:14:07.927Z,101581.56
2022-09-23T08:16:35.895Z,101586.97
2022-09-23T08:21:36.440Z,101585.25
2022-09-23T08:24:03.694Z,101581.56
2022-09-23T08:26:34.305Z,101580.59
2022-09-23T08:29:02.200Z,101575.19
2022-09-23T08:31:29.707Z,101576.78
2022-09-23T08:33:58.217Z,101573.22
2022-09-23T08:36:26.275Z,101574.94
2022-09-23T08:38:53.582Z,101577.63
2022-09-23T08:41:29.149Z,101573.94
2022-09-23T08:44:21.167Z,101574.94
2022-09-23T08:46:54.743Z,101572.09
2022-09-23T08:49:48.194Z,101571.25
2022-09-23T08:52:33.534Z,101580.06
2022-09-23T08:55:02.744Z,101569.28
2022-09-23T08:58:23.971Z,101569.28
2022-09-23T09:01:10.962Z,101566.59
2022-09-23T09:04:02.742Z,101562.03
2022-09-23T09:06:51.843Z,101569.16
2022-09-23T09:09:32.494Z,101564.88
2022-09-23T09:12:11.492Z,101565.84
2022-09-23T09:15:07.903Z,101560.34
2022-09-23T09:17:48.443Z,101546.00
2022-09-23T09:20:18.949Z,101553.97
2022-09-23T09:22:49.264Z,101545.03
2022-09-23T09:25:42.451Z,101542.31
2022-09-23T09:28:19.235Z,101549.41
2022-09-23T09:30:52.582Z,101539.63
2022-09-23T09:33:28.198Z,101544.03
2022-09-23T09:35:58.458Z,101537.78
2022-09-23T09:38:27.516Z,101532.38
2022-09-23T09:41:00.334Z,101542.19
2022-09-23T09:43:27.666Z,101545.72
2022-09-23T09:46:14.177Z,101541.19
2022-09-23T09:49:01.931Z,101527.69
2022-09-23T09:51:29.859Z,101532.25
2022-09-23T09:54:17.581Z,101541.19
2022-09-23T09:56:45.267Z,101537.63
2022-09-23T09:59:20.553Z,101535.78
2022-09-23T10:01:47.958Z,101540.34
2022-09-23T10:04:33.859Z,101529.56
2022-09-23T10:07:24.923Z,101534.94
2022-09-23T10:09:52.221Z,101521.47
2022-09-23T10:12:22.825Z,101535.78
2022-09-23T10:15:01.034Z,101516.91
2022-09-23T10:17:36.271Z,101516.06
2022-09-23T10:20:08.393Z,101513.38
2022-09-23T10:22:39.036Z,101514.22
2022-09-23T10:25:16.907Z,101513.38
2022-09-23T10:27:45.576Z,101508.97
2022-09-23T10:30:27.872Z,101508.81
2022-09-23T10:32:56.917Z,101507.00
2022-09-23T10:35:25.573Z,101503.44
2022-09-23T10:37:57.901Z,101497.19
2022-09-23T10:41:02.444Z,101501.63
2022-09-23T10:44:04.528Z,101491.69
2022-09-23T10:46:47.113Z,101488.13
2022-09-23T10:49:41.182Z,101491.81
2022-09-23T10:52:22.832Z,101486.41
2022-09-23T10:54:53.359Z,101493.53
2022-09-23T10:57:40.810Z,101486.41
2022-09-23T11:00:32.569Z,101486.41
2022-09-23T11:03:31.758Z,101490.84
2022-09-23T11:06:34.352Z,101490.09
2022-09-23T11:09:25.165Z,101480.16
2022-09-23T11:12:06.754Z,101473.91
2022-09-23T11:14:59.296Z,101475.63
2022-09-23T11:18:00.900Z,101465.84
2022-09-23T11:20:50.166Z,101463.00
2022-09-23T11:23:37.675Z,101454.06
2022-09-23T11:26:33.681Z,101454.06
2022-09-23T11:29:29.792Z,101446.97
2022-09-23T11:32:51.410Z,101446.97
2022-09-23T11:35:29.912Z,101439.72
2022-09-23T11:38:07.994Z,101441.41
2022-09-23T11:40:43.930Z,101437.88
2022-09-23T11:43:23.388Z,101435.19
2022-09-23T11:46:15.825Z,101424.41
2022-09-23T11:48:49.211Z,101424.41
2022-09-23T11:51:40.015Z,101434.22
2022-09-23T11:54:31.531Z,101427.94
2022-09-23T11:57:06.516Z,101421.59
2022-09-23T11:59:45.537Z,101426.97
2022-09-23T12:02:28.166Z,101422.44
2022-09-23T12:05:08.385Z,101417.03
2022-09-23T12:07:58.566Z,101415.19
2022-09-23T12:10:36.939Z,101407.25
2022-09-23T12:13:20.831Z,101412.66
2022-09-23T12:15:54.935Z,101411.66
2022-09-23T12:18:49.663Z,101407.09
2022-09-23T12:21:50.346Z,101400.88
2022-09-23T12:24:27.010Z,101394.47
2022-09-23T12:27:00.371Z,101394.47
2022-09-23T12:29:34.071Z,101382.00
2022-09-23T12:32:07.435Z,101387.38
2022-09-23T12:34:49.130Z,101388.22
2022-09-23T12:37:47.061Z,101383.69
2022-09-23T12:40:26.064Z,101386.38
2022-09-23T12:42:56.387Z,101372.91
2022-09-23T12:45:35.053Z,101363.13
2022-09-23T12:48:18.272Z,101370.22
2022-09-23T12:51:16.848Z,101367.50
2022-09-23T12:53:59.748Z,101363.13
2022-09-23T12:56:44.916Z,101350.47
2022-09-23T12:59:27.132Z,101345.09
2022-09-23T13:01:56.220Z,101351.34
2022-09-23T13:05:04.448Z,101350.47
2022-09-23T13:07:34.261Z,101338.84
2022-09-23T13:10:16.798Z,101338.00
2022-09-23T13:12:47.447Z,101340.53
2022-09-23T13:15:34.254Z,101332.47
2022-09-23T13:18:20.322Z,101322.53
2022-09-23T13:20:49.466Z,101328.91
2022-09-23T13:23:22.984Z,101323.53
2022-09-23T13:25:53.229Z,101319.97
2022-09-23T13:28:34.762Z,101317.28
2022-09-23T13:31:05.517Z,101307.34
2022-09-23T13:33:40.521Z,101309.19
2022-09-23T13:36:16.742Z,101305.66
2022-09-23T13:38:46.950Z,101303.78
2022-09-23T13:41:19.138Z,101303.78
2022-09-23T13:43:53.802Z,101301.09
2022-09-23T13:46:27.500Z,101293.00
2022-09-23T13:48:56.404Z,101298.41
2022-09-23T13:51:44.836Z,101294.72
2022-09-23T13:54:35.510Z,101291.16
2022-09-23T13:57:03.661Z,101290.31
2022-09-23T13:59:38.014Z,101282.22
2022-09-23T14:02:25.834Z,101285.78
2022-09-23T14:04:56.672Z,101287.63
2022-09-23T14:07:25.107Z,101279.53
2022-09-23T14:09:55.323Z,101281.38
2022-09-23T14:12:23.036Z,101279.53
2022-09-23T14:14:52.506Z,101272.28
2022-09-23T14:17:25.295Z,101266.91
2022-09-23T14:19:52.646Z,101265.06
2022-09-23T14:22:25.637Z,101266.06
2022-09-23T14:24:54.172Z,101263.34
2022-09-23T14:27:30.921Z,101262.50
2022-09-23T14:30:00.196Z,101264.19
2022-09-23T14:32:29.581Z,101258.97
2022-09-23T14:35:00.222Z,101263.34
2022-09-23T14:37:45.700Z,101253.56
2022-09-23T14:40:19.134Z,101256.25
2022-09-23T14:42:52.040Z,101257.97
2022-09-23T14:45:26.390Z,101247.19
2022-09-23T14:47:59.626Z,101241.91
2022-09-23T14:50:48.461Z,101249.88
2022-09-23T14:53:24.670Z,101244.47
2022-09-23T14:56:07.891Z,101240.09
2022-09-23T14:58:52.686Z,101234.69
2022-09-23T15:01:34.931Z,101232.00
2022-09-23T15:04:11.344Z,101228.44
2022-09-23T15:06:44.751Z,101226.59
2022-09-23T15:09:20.141Z,101223.03
2022-09-23T15:11:47.615Z,101223.91
2022-09-23T15:14:36.573Z,101229.31
2022-09-23T15:17:06.877Z,101230.16
2022-09-23T15:19:35.646Z,101217.63
2022-09-23T15:22:03.156Z,101224.75
2022-09-23T15:24:38.171Z,101226.59
2022-09-23T15:27:17.589Z,101221.22
2022-09-23T15:29:45.270Z,101223.91
2022-09-23T15:32:12.545Z,101221.22
2022-09-23T15:34:39.772Z,101223.03
2022-09-23T15:37:12.531Z,101226.59
2022-09-23T15:39:39.826Z,101228.44
2022-09-23T15:42:10.178Z,101224.75
2022-09-23T15:44:37.998Z,101226.59
2022-09-23T15:47:05.458Z,101220.34
2022-09-23T15:49:39.033Z,101220.50
2022-09-23T15:52:10.287Z,101215.81
2022-09-23T15:54:37.967Z,101211.41
2022-09-23T15:57:05.245Z,101223.91
2022-09-23T15:59:33.075Z,101221.22
2022-09-23T16:02:06.666Z,101217.63
2022-09-23T16:04:34.213Z,101216.78
2022-09-23T16:07:04.181Z,101214.09
2022-09-23T16:09:31.711Z,101207.72
2022-09-23T16:12:03.324Z,101212.25
2022-09-23T16:14:30.525Z,101212.25
2022-09-23T16:16:57.922Z,101209.56
2022-09-23T16:19:25.811Z,101195.22
2022-09-23T16:21:53.040Z,101209.56
2022-09-23T16:24:22.590Z,101206.84
2022-09-23T16:26:53.097Z,101207.84
2022-09-23T16:29:20.202Z,101206.84
2022-09-23T16:31:47.495Z,101211.41
2022-09-23T16:34:14.802Z,101208.69
2022-09-23T16:36:43.467Z,101211.41
2022-09-23T16:39:13.123Z,101211.41
2022-09-23T16:41:42.838Z,101201.75
2022-09-23T16:44:12.436Z,101216.94
2022-09-23T16:46:42.933Z,101212.56
2022-09-23T16:49:13.948Z,101209.00
2022-09-23T16:51:41.332Z,101201.88
2022-09-23T16:54:12.778Z,101210.97
2022-09-23T16:56:45.034Z,101215.53
2022-09-23T16:59:13.576Z,101206.59
2022-09-23T17:01:59.859Z,101206.72
2022-09-23T17:04:30.201Z,101206.84
2022-09-23T17:06:57.814Z,101197.91
2022-09-23T17:09:28.241Z,101200.63
2022-09-23T17:11:59.797Z,101208.72
2022-09-23T17:14:31.065Z,101202.47
2022-09-23T17:16:59.095Z,101205.00
2022-09-23T17:19:26.427Z,101209.41
2022-09-23T17:22:31.108Z,101207.59
2022-09-23T17:24:58.890Z,101205.75
2022-09-23T17:27:26.447Z,101205.59
2022-09-23T17:29:53.755Z,101202.88
2022-09-23T17:32:21.248Z,101196.66
2022-09-23T17:34:48.507Z,101198.34
2022-09-23T17:37:16.020Z,101198.34
2022-09-23T17:39:43.317Z,101201.88
2022-09-23T17:42:10.642Z,101199.19
2022-09-23T17:44:39.116Z,101196.38
2022-09-23T17:47:06.671Z,101206.31
2022-09-23T17:49:39.200Z,101203.63
2022-09-23T17:52:07.415Z,101200.91
2022-09-23T17:54:36.612Z,101208.84
2022-09-23T17:57:04.158Z,101208.84
2022-09-23T17:59:31.426Z,101212.41
2022-09-23T18:01:58.863Z,101215.09
2022-09-23T18:04:26.355Z,101219.50
2022-09-23T18:06:53.576Z,101216.78
2022-09-23T18:09:21.243Z,101220.34
2022-09-23T18:11:49.799Z,101222.91
2022-09-23T18:14:22.432Z,101225.59
2022-09-23T18:16:52.365Z,101230.16
2022-09-23T18:19:21.629Z,101231.00
2022-09-23T18:21:58.579Z,101231.00
2022-09-23T18:24:33.798Z,101236.25
2022-09-23T18:27:02.263Z,101234.53
2022-09-23T18:29:30.467Z,101239.94
2022-09-23T18:31:59.490Z,101242.63
2022-09-23T18:34:28.709Z,101242.63
2022-09-23T18:36:57.265Z,101249.72
2022-09-23T18:39:24.795Z,101243.47
2022-09-23T18:41:53.136Z,101249.72
2022-09-23T18:44:21.558Z,101251.41
2022-09-23T18:46:50.594Z,101253.25
2022-09-23T18:49:36.660Z,101257.81
2022-09-23T18:52:04.806Z,101257.81
2022-09-23T18:54:32.471Z,101251.56
2022-09-23T18:56:59.734Z,101256.97
2022-09-23T18:59:29.387Z,101253.41
2022-09-23T19:01:57.980Z,101255.97
2022-09-23T19:04:27.929Z,101255.13
2022-09-23T19:06:56.718Z,101262.19
2022-09-23T19:09:24.560Z,101260.50
2022-09-23T19:11:52.692Z,101266.75
2022-09-23T19:14:21.814Z,101268.47
2022-09-23T19:16:51.824Z,101268.47
2022-09-23T19:19:19.727Z,101269.31
2022-09-23T19:21:49.367Z,101263.09
2022-09-23T19:24:20.099Z,101263.09
2022-09-23T19:26:48.765Z,101267.47
2022-09-23T19:29:24.086Z,101255.00
2022-09-23T19:31:51.398Z,101251.28
2022-09-23T19:34:25.875Z,101253.16
2022-09-23T19:37:03.379Z,101247.75
2022-09-23T19:39:33.398Z,101248.59
2022-09-23T19:42:03.302Z,101254.00
2022-09-23T19:44:31.102Z,101252.28
2022-09-23T19:47:00.019Z,101254.00
2022-09-23T19:49:32.596Z,101253.00
2022-09-23T19:52:01.964Z,101253.00
2022-09-23T19:54:30.752Z,101261.09
2022-09-23T19:56:57.988Z,101263.63
2022-09-23T19:59:29.666Z,101262.78
2022-09-23T20:01:59.521Z,101252.00
2022-09-23T20:04:28.555Z,101253.72
2022-09-23T20:07:01.035Z,101259.13
2022-09-23T20:09:29.293Z,101252.75
2022-09-23T20:12:00.238Z,101249.22
2022-09-23T20:14:27.486Z,101255.44
2022-09-23T20:16:54.962Z,101254.59
2022-09-23T20:19:22.892Z,101256.41
2022-09-23T20:22:12.045Z,101257.31
2022-09-23T20:24:40.438Z,101254.59
2022-09-23T20:27:11.151Z,101262.69
2022-09-23T20:29:39.044Z,101265.38
2022-09-23T20:32:08.913Z,101264.38
2022-09-23T20:34:36.679Z,101274.31
2022-09-23T20:37:05.585Z,101270.78
2022-09-23T20:39:33.212Z,101274.31
2022-09-23T20:42:33.078Z,101277.03
2022-09-23T20:45:01.121Z,101268.09
2022-09-23T20:47:29.119Z,101273.31
2022-09-23T20:49:58.136Z,101269.78
2022-09-23T20:52:26.179Z,101264.38
2022-09-23T20:54:54.483Z,101262.53
2022-09-23T20:57:22.153Z,101273.31
2022-09-23T20:59:50.679Z,101265.25
2022-09-23T21:02:19.115Z,101262.53
2022-09-23T21:04:47.366Z,101259.00
2022-09-23T21:07:14.608Z,101261.69
2022-09-23T21:09:42.038Z,101257.16
2022-09-23T21:12:09.587Z,101256.31
2022-09-23T21:14:37.145Z,101251.75
2022-09-23T21:17:05.112Z,101250.91
2022-09-23T21:19:35.475Z,101243.66
2022-09-23T21:22:03.352Z,101241.81
2022-09-23T21:25:15.755Z,101245.34
2022-09-23T21:27:19.578Z,101246.38
2022-09-23T21:29:47.994Z,101249.91
2022-09-23T21:32:15.635Z,101252.59
2022-09-23T21:34:43.029Z,101256.16
2022-09-23T21:37:10.628Z,101253.44
2022-09-23T21:39:38.115Z,101253.44
2022-09-23T21:42:06.091Z,101251.75
2022-09-23T21:44:33.674Z,101251.75
2022-09-23T21:47:01.018Z,101250.06
2022-09-23T21:49:28.352Z,101254.44
2022-09-23T21:52:00.666Z,101254.44
2022-09-23T21:54:29.574Z,101250.91
2022-09-23T21:56:56.992Z,101253.59
2022-09-23T21:59:24.931Z,101267.09
2022-09-23T22:01:54.361Z,101253.59
2022-09-23T22:04:21.936Z,101254.59
2022-09-23T22:06:49.316Z,101257.16
2022-09-23T22:09:19.549Z,101257.16
2022-09-23T22:12:05.466Z,101258.16
2022-09-23T22:14:32.780Z,101244.66
2022-09-23T22:17:02.613Z,101259.00
2022-09-23T22:19:36.741Z,101257.16
2022-09-23T22:22:15.574Z,101259.00
2022-09-23T22:24:44.419Z,101260.00
2022-09-23T22:27:14.144Z,101260.84
2022-09-23T22:30:00.392Z,101259.00
2022-09-23T22:32:46.320Z,101251.91
2022-09-23T22:35:19.306Z,101250.06
2022-09-23T22:37:47.309Z,101256.31
2022-09-23T22:40:15.582Z,101263.53
2022-09-23T22:42:43.833Z,101259.00
2022-09-23T22:45:12.030Z,101260.84
2022-09-23T22:47:40.921Z,101262.69
2022-09-23T22:50:09.704Z,101257.16
2022-09-23T22:52:37.923Z,101254.44
2022-09-23T22:55:08.006Z,101244.66
2022-09-23T22:57:36.471Z,101247.38
2022-09-23T23:00:08.239Z,101252.75
2022-09-23T23:02:35.487Z,101255.53
2022-09-23T23:05:02.921Z,101251.91
2022-09-23T23:07:30.198Z,101261.81
2022-09-23T23:09:57.581Z,101257.38
2022-09-23T23:12:24.841Z,101252.84
2022-09-23T23:14:52.676Z,101258.25
2022-09-23T23:17:19.916Z,101252.00
2022-09-23T23:19:47.698Z,101258.25
2022-09-23T23:22:14.951Z,101259.13
2022-09-23T23:24:42.295Z,101254.69
2022-09-23T23:27:09.502Z,101259.25
2022-09-23T23:29:36.703Z,101263.78
2022-09-23T23:32:05.106Z,101259.25
2022-09-23T23:34:32.336Z,101262.94
2022-09-23T23:36:59.619Z,101260.25
2022-09-23T23:39:26.815Z,101258.53
2022-09-23T23:41:56.039Z,101260.25
2022-09-23T23:44:24.873Z,101254.84
2022-09-23T23:46:53.141Z,101250.44
2022-09-23T23:49:20.872Z,101251.28
2022-09-23T23:51:48.439Z,101246.91
2022-09-23T23:54:15.733Z,101246.91
2022-09-23T23:56:43.089Z,101241.50
2022-09-23T23:59:10.356Z,101243.31
